EDLV/NRN METAR and TAF weather

Enter ICAO airport designator
Station Type Date Time Source
EDLV METAR 2020/01/21 18:20 UTC NOAA

EDLV 211820Z VRB03KT 0450 R27/0650U FZFG VV/// M01/M01 Q1040


Station Type Date Time Source
EDLV Decoded METAR 2020/01/21 18:20 UTC NOAA

Niederrhein, Germany (EDLV) 51-36-09N 006-08-32E
Jan 21, 2020 - 01:20 PM EST / 2020.01.21 1820 UTC
Wind: Variable at 3 MPH (3 KT):0
Visibility: less than 1 mile:0
Sky conditions: obscured
Weather: freezing fog
Temperature: 30 F (-1 C)
Dew Point: 30 F (-1 C)
Relative Humidity: 100%
Pressure (altimeter): 30.71 in. Hg (1040 hPa)
ob: EDLV 211820Z VRB03KT 0450 R27/0650U FZFG VV/// M01/M01 Q1040
cycle: 18

Station Type Date Time Source
EDLV TAF 2020/01/21 23:15 UTC NOAA

TAF
AMD TAF
AMD EDLV 202350Z 2023/2118 CNL

Example: see airport list